createdAt,value
2022-10-23T00:00:24.745Z,100264.40
2022-10-23T00:02:56.810Z,100266.81
2022-10-23T00:05:28.818Z,100266.81
2022-10-23T00:08:01.615Z,100268.70
2022-10-23T00:10:32.618Z,100271.45
2022-10-23T00:13:03.993Z,100269.22
2022-10-23T00:15:37.584Z,100270.09
2022-10-23T00:18:08.640Z,100272.11
2022-10-23T00:20:39.515Z,100277.29
2022-10-23T00:23:10.498Z,100278.16
2022-10-23T00:25:41.508Z,100279.71
2022-10-23T00:28:13.115Z,100280.42
2022-10-23T00:30:44.076Z,100282.48
2022-10-23T00:33:14.902Z,100282.02
2022-10-23T00:35:45.752Z,100285.79
2022-10-23T00:38:16.661Z,100282.89
2022-10-23T00:40:47.748Z,100290.13
2022-10-23T00:43:23.572Z,100292.91
2022-10-23T00:45:55.351Z,100294.66
2022-10-23T00:48:27.204Z,100296.92
2022-10-23T00:50:58.213Z,100299.88
2022-10-23T00:53:29.619Z,100299.35
2022-10-23T00:56:03.281Z,100303.70
2022-10-23T00:58:34.653Z,100308.91
2022-10-23T01:01:17.184Z,100315.13
2022-10-23T01:03:48.909Z,100315.52
2022-10-23T01:06:28.761Z,100315.71
2022-10-23T01:09:08.085Z,100315.37
2022-10-23T01:11:47.113Z,100319.34
2022-10-23T01:14:27.831Z,100322.11
2022-10-23T01:17:07.251Z,100326.22
2022-10-23T01:19:56.082Z,100328.79
2022-10-23T01:22:48.229Z,100328.28
2022-10-23T01:25:31.133Z,100331.89
2022-10-23T01:28:06.362Z,100334.08
2022-10-23T01:33:24.455Z,100335.15
2022-10-23T01:36:02.868Z,100336.52
2022-10-23T01:38:40.591Z,100337.55
2022-10-23T01:41:29.514Z,100334.60
2022-10-23T01:44:06.437Z,100331.36
2022-10-23T01:46:40.900Z,100333.92
2022-10-23T01:49:15.423Z,100332.91
2022-10-23T01:51:54.022Z,100333.92
2022-10-23T01:54:30.720Z,100333.91
2022-10-23T01:57:05.757Z,100335.96
2022-10-23T01:59:37.288Z,100339.21
2022-10-23T02:02:12.890Z,100336.98
2022-10-23T02:04:52.477Z,100338.36
2022-10-23T02:07:23.731Z,100343.85
2022-10-23T02:09:55.058Z,100340.41
2022-10-23T02:12:37.972Z,100341.61
2022-10-23T02:15:15.370Z,100346.58
2022-10-23T02:17:56.820Z,100346.74
2022-10-23T02:20:36.991Z,100351.20
2022-10-23T02:23:20.518Z,100353.24
2022-10-23T02:25:57.998Z,100354.26
2022-10-23T02:28:35.300Z,100359.75
2022-10-23T02:31:09.845Z,100362.67
2022-10-23T02:33:40.864Z,100366.73
2022-10-23T02:36:13.100Z,100366.74
2022-10-23T02:38:45.458Z,100369.32
2022-10-23T02:41:33.075Z,100369.98
2022-10-23T02:44:16.061Z,100368.64
2022-10-23T02:46:57.572Z,100368.34
2022-10-23T02:49:36.970Z,100370.59
2022-10-23T02:52:17.401Z,100376.95
2022-10-23T02:55:11.124Z,100380.21
2022-10-23T02:57:58.942Z,100377.65
2022-10-23T03:00:34.319Z,100376.61
2022-10-23T03:03:07.351Z,100378.14
2022-10-23T03:05:40.694Z,100375.05
2022-10-23T03:08:13.659Z,100376.25
2022-10-23T03:10:45.774Z,100370.74
2022-10-23T03:13:18.079Z,100373.84
2022-10-23T03:15:48.984Z,100374.69
2022-10-23T03:18:19.874Z,100376.09
2022-10-23T03:20:53.692Z,100370.77
2022-10-23T03:23:26.243Z,100370.89
2022-10-23T03:25:57.302Z,100374.11
2022-10-23T03:28:36.341Z,100375.27
2022-10-23T03:31:07.481Z,100372.14
2022-10-23T03:33:38.615Z,100372.59
2022-10-23T03:36:14.587Z,100369.27
2022-10-23T03:38:47.436Z,100369.42
2022-10-23T03:41:18.441Z,100369.75
2022-10-23T03:43:49.497Z,100373.48
2022-10-23T03:46:20.397Z,100383.79
2022-10-23T03:48:58.282Z,100390.29
2022-10-23T03:51:29.601Z,100392.34
2022-10-23T03:54:01.926Z,100390.44
2022-10-23T03:56:33.018Z,100394.06
2022-10-23T03:59:04.138Z,100393.74
2022-10-23T04:01:35.386Z,100396.02
2022-10-23T04:04:06.329Z,100397.58
2022-10-23T04:06:37.588Z,100407.40
2022-10-23T04:09:09.098Z,100407.44
2022-10-23T04:11:43.001Z,100413.66
2022-10-23T04:14:16.024Z,100417.45
2022-10-23T04:16:46.841Z,100421.59
2022-10-23T04:19:18.657Z,100420.41
2022-10-23T04:21:49.780Z,100420.95
2022-10-23T04:24:20.845Z,100420.65
2022-10-23T04:26:51.777Z,100417.61
2022-10-23T04:29:24.678Z,100418.48
2022-10-23T04:31:55.573Z,100424.36
2022-10-23T04:34:26.652Z,100430.39
2022-10-23T04:36:58.137Z,100429.36
2022-10-23T04:39:28.968Z,100431.41
2022-10-23T04:41:59.878Z,100432.95
2022-10-23T04:44:30.864Z,100438.10
2022-10-23T04:47:01.890Z,100436.55
2022-10-23T04:49:33.004Z,100441.18
2022-10-23T04:52:16.055Z,100442.52
2022-10-23T04:54:57.209Z,100440.45
2022-10-23T04:57:37.060Z,100445.92
2022-10-23T05:00:14.697Z,100445.05
2022-10-23T05:02:53.621Z,100446.08
2022-10-23T05:05:25.406Z,100444.02
2022-10-23T05:08:14.228Z,100446.28
2022-10-23T05:11:11.480Z,100444.07
2022-10-23T05:13:47.160Z,100440.71
2022-10-23T05:16:37.503Z,100443.52
2022-10-23T05:19:11.889Z,100444.42
2022-10-23T05:21:46.483Z,100441.57
2022-10-23T05:24:18.543Z,100446.97
2022-10-23T05:26:59.294Z,100448.59
2022-10-23T05:29:30.193Z,100453.29
2022-10-23T05:32:07.077Z,100454.55
2022-10-23T05:34:39.817Z,100452.04
2022-10-23T05:37:15.335Z,100458.92
2022-10-23T05:39:46.637Z,100462.90
2022-10-23T05:42:20.728Z,100475.80
2022-10-23T05:44:51.994Z,100478.73
2022-10-23T05:47:47.685Z,100472.45
2022-10-23T05:50:47.655Z,100474.39
2022-10-23T05:53:30.033Z,100479.55
2022-10-23T05:56:26.943Z,100484.54
2022-10-23T05:59:05.362Z,100481.12
2022-10-23T06:01:54.590Z,100479.30
2022-10-23T06:04:34.981Z,100478.33
2022-10-23T06:07:29.179Z,100475.63
2022-10-23T06:10:02.209Z,100477.89
2022-10-23T06:12:34.254Z,100478.23
2022-10-23T06:15:06.277Z,100479.13
2022-10-23T06:17:54.106Z,100484.78
2022-10-23T06:20:27.881Z,100489.23
2022-10-23T06:23:08.498Z,100494.91
2022-10-23T06:25:59.719Z,100498.88
2022-10-23T06:28:37.367Z,100505.20
2022-10-23T06:31:09.807Z,100503.60
2022-10-23T06:33:40.928Z,100507.28
2022-10-23T06:36:13.025Z,100502.56
2022-10-23T06:38:45.468Z,100502.45
2022-10-23T06:41:20.739Z,100502.21
2022-10-23T06:43:56.702Z,100503.52
2022-10-23T06:46:33.272Z,100509.28
2022-10-23T06:49:24.690Z,100512.79
2022-10-23T06:51:57.548Z,100517.67
2022-10-23T06:54:28.553Z,100519.56
2022-10-23T06:57:15.135Z,100523.89
2022-10-23T06:59:49.419Z,100529.83
2022-10-23T07:02:20.478Z,100529.68
2022-10-23T07:04:52.196Z,100534.92
2022-10-23T07:07:23.857Z,100532.44
2022-10-23T07:09:54.892Z,100528.54
2022-10-23T07:12:32.260Z,100532.08
2022-10-23T07:15:25.938Z,100523.08
2022-10-23T07:17:57.508Z,100519.73
2022-10-23T07:20:29.188Z,100521.98
2022-10-23T07:23:00.144Z,100522.83
2022-10-23T07:25:35.919Z,100527.15
2022-10-23T07:28:09.801Z,100528.63
2022-10-23T07:30:41.641Z,100533.39
2022-10-23T07:33:14.863Z,100530.52
2022-10-23T07:35:58.445Z,100531.43
2022-10-23T07:38:32.206Z,100533.20
2022-10-23T07:41:05.835Z,100530.16
2022-10-23T07:43:39.080Z,100526.45
2022-10-23T07:46:10.618Z,100518.73
2022-10-23T07:48:43.736Z,100517.33
2022-10-23T07:51:17.024Z,100515.95
2022-10-23T07:53:49.875Z,100517.83
2022-10-23T07:56:31.652Z,100514.95
2022-10-23T07:59:24.761Z,100518.85
2022-10-23T08:01:57.794Z,100515.37
2022-10-23T08:04:33.668Z,100514.02
2022-10-23T08:07:19.136Z,100511.79
2022-10-23T08:09:51.332Z,100512.56
2022-10-23T08:12:22.323Z,100512.48
2022-10-23T08:14:58.119Z,100510.85
2022-10-23T08:17:30.455Z,100511.63
2022-10-23T08:20:15.320Z,100510.08
2022-10-23T08:22:47.634Z,100513.95
2022-10-23T08:25:25.102Z,100512.64
2022-10-23T08:27:56.949Z,100513.80
2022-10-23T08:30:28.134Z,100516.11
2022-10-23T08:32:59.328Z,100522.25
2022-10-23T08:35:30.194Z,100520.85
2022-10-23T08:38:01.391Z,100521.13
2022-10-23T08:40:34.216Z,100526.61
2022-10-23T08:43:40.078Z,100528.48
2022-10-23T08:46:29.974Z,100531.94
2022-10-23T08:49:41.563Z,100535.42
2022-10-23T08:52:21.611Z,100535.77
2022-10-23T08:55:18.080Z,100532.66
2022-10-23T08:57:54.525Z,100529.30
2022-10-23T09:00:25.464Z,100534.52
2022-10-23T09:02:57.016Z,100535.10
2022-10-23T09:05:32.524Z,100532.48
2022-10-23T09:08:22.728Z,100529.48
2022-10-23T09:11:05.333Z,100526.65
2022-10-23T09:14:06.184Z,100527.02
2022-10-23T09:16:50.640Z,100527.54
2022-10-23T09:19:27.114Z,100520.61
2022-10-23T09:21:59.085Z,100523.96
2022-10-23T09:24:31.838Z,100525.46
2022-10-23T09:29:36.186Z,100532.10
2022-10-23T09:32:08.889Z,100534.80
2022-10-23T09:34:50.767Z,100539.98
2022-10-23T09:37:25.513Z,100539.78
2022-10-23T09:40:15.642Z,100544.65
2022-10-23T09:42:56.926Z,100541.08
2022-10-23T09:45:31.659Z,100536.65
2022-10-23T09:48:17.588Z,100535.75
2022-10-23T09:50:57.633Z,100536.73
2022-10-23T09:53:34.038Z,100532.89
2022-10-23T09:56:11.955Z,100531.21
2022-10-23T09:58:54.967Z,100531.94
2022-10-23T10:01:30.772Z,100532.79
2022-10-23T10:04:15.435Z,100533.96
2022-10-23T10:06:46.904Z,100528.19
2022-10-23T10:09:19.360Z,100525.19
2022-10-23T10:11:55.292Z,100523.69
2022-10-23T10:14:46.952Z,100525.34
2022-10-23T10:17:28.946Z,100526.43
2022-10-23T10:20:29.915Z,100527.30
2022-10-23T10:23:05.967Z,100530.08
2022-10-23T10:25:45.712Z,100533.70
2022-10-23T10:28:32.240Z,100532.52
2022-10-23T10:31:16.587Z,100533.94
2022-10-23T10:33:58.217Z,100534.61
2022-10-23T10:36:42.475Z,100535.51
2022-10-23T10:39:26.778Z,100531.45
2022-10-23T10:42:08.789Z,100529.14
2022-10-23T10:44:51.502Z,100529.56
2022-10-23T10:47:29.904Z,100527.86
2022-10-23T10:50:16.159Z,100524.98
2022-10-23T10:53:19.512Z,100523.13
2022-10-23T10:55:54.930Z,100516.16
2022-10-23T10:58:33.235Z,100515.04
2022-10-23T11:01:12.371Z,100513.46
2022-10-23T11:03:49.990Z,100515.77
2022-10-23T11:06:28.419Z,100519.98
2022-10-23T11:09:19.419Z,100515.70
2022-10-23T11:11:52.132Z,100517.48
2022-10-23T11:14:25.500Z,100516.00
2022-10-23T11:17:03.244Z,100511.59
2022-10-23T11:19:41.224Z,100508.48
2022-10-23T11:22:19.430Z,100507.95
2022-10-23T11:25:26.991Z,100510.48
2022-10-23T11:28:21.341Z,100516.14
2022-10-23T11:31:11.897Z,100515.86
2022-10-23T11:34:02.955Z,100510.73
2022-10-23T11:36:45.656Z,100504.71
2022-10-23T11:39:23.026Z,100506.02
2022-10-23T11:42:16.574Z,100502.97
2022-10-23T11:44:49.606Z,100503.55
2022-10-23T11:47:38.840Z,100496.13
2022-10-23T11:50:29.927Z,100493.80
2022-10-23T11:53:15.225Z,100495.14
2022-10-23T11:56:05.377Z,100489.63
2022-10-23T11:58:48.317Z,100480.92
2022-10-23T12:01:32.315Z,100483.33
2022-10-23T12:04:15.424Z,100479.55
2022-10-23T12:06:49.014Z,100478.94
2022-10-23T12:09:38.818Z,100480.96
2022-10-23T12:12:29.385Z,100477.46
2022-10-23T12:15:24.345Z,100473.44
2022-10-23T12:17:56.780Z,100474.88
2022-10-23T12:20:45.986Z,100472.41
2022-10-23T12:23:35.071Z,100467.06
2022-10-23T12:26:34.373Z,100469.45
2022-10-23T12:29:20.200Z,100471.40
2022-10-23T12:32:00.840Z,100472.60
2022-10-23T12:34:46.484Z,100477.29
2022-10-23T12:37:42.278Z,100480.20
2022-10-23T12:40:13.365Z,100480.93
2022-10-23T12:42:53.776Z,100482.30
2022-10-23T12:45:27.299Z,100486.88
2022-10-23T12:47:58.457Z,100487.55
2022-10-23T12:50:31.373Z,100486.19
2022-10-23T12:53:04.489Z,100483.42
2022-10-23T12:55:52.807Z,100483.56
2022-10-23T12:58:27.338Z,100486.31
2022-10-23T13:01:02.031Z,100489.40
2022-10-23T13:03:35.302Z,100491.91
2022-10-23T13:06:06.930Z,100491.66
2022-10-23T13:08:42.992Z,100490.86
2022-10-23T13:11:29.347Z,100491.24
2022-10-23T13:14:02.115Z,100493.35
2022-10-23T13:16:32.914Z,100495.45
2022-10-23T13:19:03.765Z,100496.86
2022-10-23T13:21:36.083Z,100496.77
2022-10-23T13:24:19.034Z,100495.14
2022-10-23T13:26:50.038Z,100494.73
2022-10-23T13:31:56.273Z,100491.92
2022-10-23T13:34:29.570Z,100492.14
2022-10-23T13:37:05.863Z,100492.02
2022-10-23T13:39:36.875Z,100491.56
2022-10-23T13:42:15.891Z,100492.16
2022-10-23T13:44:47.427Z,100489.64
2022-10-23T13:47:18.817Z,100489.39
2022-10-23T13:49:49.972Z,100492.59
2022-10-23T13:52:24.595Z,100494.19
2022-10-23T13:54:55.509Z,100494.25
2022-10-23T13:57:27.124Z,100490.52
2022-10-23T13:59:58.009Z,100484.64
2022-10-23T14:02:29.541Z,100485.02
2022-10-23T14:05:00.496Z,100487.40
2022-10-23T14:07:31.409Z,100486.52
2022-10-23T14:10:02.353Z,100482.02
2022-10-23T14:12:39.362Z,100480.30
2022-10-23T14:15:12.772Z,100480.32
2022-10-23T14:17:43.665Z,100473.11
2022-10-23T14:20:17.264Z,100476.84
2022-10-23T14:22:49.347Z,100481.81
2022-10-23T14:25:20.314Z,100482.70
2022-10-23T14:27:51.361Z,100487.55
2022-10-23T14:30:22.208Z,100490.72
2022-10-23T14:32:53.298Z,100491.51
2022-10-23T14:35:25.717Z,100490.57
2022-10-23T14:37:57.997Z,100493.45
2022-10-23T14:40:28.966Z,100496.31
2022-10-23T14:42:59.917Z,100498.14
2022-10-23T14:45:30.898Z,100492.02
2022-10-23T14:48:03.002Z,100493.52
2022-10-23T14:50:35.745Z,100493.14
2022-10-23T14:53:09.916Z,100493.95
2022-10-23T14:55:41.265Z,100486.11
2022-10-23T14:58:12.309Z,100487.20
2022-10-23T15:00:43.170Z,100484.98
2022-10-23T15:03:16.735Z,100485.91
2022-10-23T15:05:47.545Z,100487.00
2022-10-23T15:08:18.407Z,100486.52
2022-10-23T15:10:49.217Z,100489.99
2022-10-23T15:13:20.275Z,100486.96
2022-10-23T15:15:51.173Z,100487.35
2022-10-23T15:18:22.450Z,100489.77
2022-10-23T15:20:56.042Z,100489.80
2022-10-23T15:23:27.097Z,100488.79
2022-10-23T15:26:04.341Z,100491.26
2022-10-23T15:28:35.730Z,100489.08
2022-10-23T15:31:22.948Z,100490.67
2022-10-23T15:33:55.984Z,100487.27
2022-10-23T15:36:27.469Z,100490.22
2022-10-23T15:38:58.477Z,100491.10
2022-10-23T15:41:31.927Z,100491.63
2022-10-23T15:44:04.297Z,100489.23
2022-10-23T15:46:35.719Z,100489.30
2022-10-23T15:49:08.532Z,100492.41
2022-10-23T15:51:40.477Z,100493.44
2022-10-23T15:54:17.169Z,100492.39
2022-10-23T15:56:49.028Z,100495.77
2022-10-23T15:59:20.596Z,100496.91
2022-10-23T16:01:52.488Z,100501.51
2022-10-23T16:04:23.578Z,100499.25
2022-10-23T16:06:54.443Z,100498.55
2022-10-23T16:09:25.361Z,100498.23
2022-10-23T16:11:56.325Z,100497.91
2022-10-23T16:14:27.601Z,100497.96
2022-10-23T16:16:58.506Z,100500.09
2022-10-23T16:19:29.384Z,100498.07
2022-10-23T16:22:04.290Z,100497.64
2022-10-23T16:24:35.622Z,100496.73
2022-10-23T16:27:06.602Z,100503.86
2022-10-23T16:29:37.882Z,100504.98
2022-10-23T16:32:09.131Z,100503.45
2022-10-23T16:34:40.707Z,100504.20
2022-10-23T16:37:11.948Z,100506.13
2022-10-23T16:39:53.187Z,100504.68
2022-10-23T16:42:43.084Z,100507.88
2022-10-23T16:45:18.200Z,100511.37
2022-10-23T16:47:49.101Z,100511.73
2022-10-23T16:50:20.170Z,100515.21
2022-10-23T16:52:53.368Z,100515.25
2022-10-23T16:55:26.712Z,100520.30
2022-10-23T16:58:00.733Z,100521.55
2022-10-23T17:00:35.321Z,100528.65
2022-10-23T17:03:07.824Z,100523.52
2022-10-23T17:05:39.198Z,100524.23
2022-10-23T17:08:10.296Z,100524.57
2022-10-23T17:10:42.078Z,100529.56
2022-10-23T17:13:13.011Z,100529.73
2022-10-23T17:15:43.990Z,100529.41
2022-10-23T17:18:15.148Z,100526.49
2022-10-23T17:20:46.071Z,100527.86
2022-10-23T17:23:17.101Z,100530.60
2022-10-23T17:25:50.107Z,100532.48
2022-10-23T17:28:21.105Z,100531.13
2022-10-23T17:30:52.090Z,100528.58
2022-10-23T17:33:22.981Z,100526.88
2022-10-23T17:35:54.685Z,100527.41
2022-10-23T17:38:26.702Z,100526.24
2022-10-23T17:40:57.550Z,100525.72
2022-10-23T17:43:28.424Z,100525.91
2022-10-23T17:45:59.523Z,100526.46
2022-10-23T17:48:30.486Z,100522.86
2022-10-23T17:51:06.730Z,100521.17
2022-10-23T17:53:39.156Z,100521.39
2022-10-23T17:56:13.325Z,100517.09
2022-10-23T17:58:44.153Z,100512.67
2022-10-23T18:01:17.742Z,100516.84
2022-10-23T18:03:48.906Z,100513.13
2022-10-23T18:06:24.544Z,100503.92
2022-10-23T18:08:58.327Z,100498.66
2022-10-23T18:11:31.391Z,100498.63
2022-10-23T18:14:03.274Z,100495.84
2022-10-23T18:16:34.716Z,100500.27
2022-10-23T18:19:06.832Z,100502.08
2022-10-23T18:21:38.095Z,100499.94
2022-10-23T18:24:11.597Z,100500.20
2022-10-23T18:26:44.234Z,100501.14
2022-10-23T18:29:18.620Z,100496.07
2022-10-23T18:31:50.779Z,100496.54
2022-10-23T18:34:23.977Z,100504.54
2022-10-23T18:36:56.181Z,100513.08
2022-10-23T18:39:30.441Z,100516.98
2022-10-23T18:42:01.621Z,100522.24
2022-10-23T18:44:32.587Z,100527.33
2022-10-23T18:47:03.557Z,100530.84
2022-10-23T18:49:34.729Z,100526.05
2022-10-23T18:52:06.098Z,100521.60
2022-10-23T18:54:36.998Z,100513.40
2022-10-23T18:57:07.888Z,100508.26
2022-10-23T18:59:38.912Z,100507.30
2022-10-23T19:02:11.345Z,100504.09
2022-10-23T19:04:42.554Z,100509.65
2022-10-23T19:07:13.594Z,100511.31
2022-10-23T19:09:44.436Z,100513.79
2022-10-23T19:12:17.704Z,100515.10
2022-10-23T19:14:48.881Z,100518.14
2022-10-23T19:17:26.170Z,100517.71
2022-10-23T19:20:01.488Z,100518.01
2022-10-23T19:22:35.927Z,100518.96
2022-10-23T19:25:12.825Z,100515.77
2022-10-23T19:27:47.074Z,100514.96
2022-10-23T19:30:22.570Z,100516.42
2022-10-23T19:32:55.568Z,100512.73
2022-10-23T19:35:26.397Z,100510.44
2022-10-23T19:37:57.180Z,100513.11
2022-10-23T19:40:28.425Z,100517.67
2022-10-23T19:43:00.343Z,100522.71
2022-10-23T19:48:07.670Z,100516.30
2022-10-23T19:50:38.991Z,100514.96
2022-10-23T19:53:12.086Z,100514.84
2022-10-23T19:55:43.279Z,100507.83
2022-10-23T19:58:18.970Z,100504.20
2022-10-23T20:00:51.972Z,100505.23
2022-10-23T20:03:23.392Z,100499.80
2022-10-23T20:06:01.097Z,100500.17
2022-10-23T20:08:34.998Z,100499.18
2022-10-23T20:11:06.946Z,100499.71
2022-10-23T20:13:38.946Z,100498.55
2022-10-23T20:16:17.265Z,100497.52
2022-10-23T20:18:49.525Z,100489.15
2022-10-23T20:21:21.448Z,100486.45
2022-10-23T20:24:02.797Z,100484.56
2022-10-23T20:26:33.938Z,100485.78
2022-10-23T20:29:05.728Z,100485.65
2022-10-23T20:31:39.603Z,100480.55
2022-10-23T20:34:11.321Z,100482.15
2022-10-23T20:36:46.670Z,100479.48
2022-10-23T20:39:21.959Z,100482.30
2022-10-23T20:42:01.569Z,100478.66
2022-10-23T20:44:34.083Z,100471.73
2022-10-23T20:47:04.994Z,100468.88
2022-10-23T20:49:36.351Z,100466.85
2022-10-23T20:52:07.465Z,100464.52
2022-10-23T20:54:38.484Z,100464.37
2022-10-23T20:57:17.971Z,100464.87
2022-10-23T20:59:53.932Z,100462.68
2022-10-23T21:02:38.344Z,100463.93
2022-10-23T21:05:14.445Z,100461.71
2022-10-23T21:07:49.375Z,100461.58
2022-10-23T21:10:23.737Z,100459.75
2022-10-23T21:12:54.848Z,100459.14
2022-10-23T21:15:26.425Z,100458.52
2022-10-23T21:18:04.009Z,100456.17
2022-10-23T21:20:49.299Z,100454.02
2022-10-23T21:23:20.695Z,100453.91
2022-10-23T21:25:57.093Z,100453.96
2022-10-23T21:28:28.551Z,100457.25
2022-10-23T21:31:07.948Z,100452.14
2022-10-23T21:33:43.867Z,100455.61
2022-10-23T21:36:17.501Z,100451.71
2022-10-23T21:38:50.321Z,100453.64
2022-10-23T21:41:25.319Z,100455.89
2022-10-23T21:43:58.305Z,100454.71
2022-10-23T21:46:31.158Z,100452.31
2022-10-23T21:49:04.559Z,100451.13
2022-10-23T21:51:38.211Z,100444.65
2022-10-23T21:54:13.350Z,100445.01
2022-10-23T21:56:44.991Z,100443.98
2022-10-23T21:59:21.252Z,100445.70
2022-10-23T22:01:53.234Z,100445.21
2022-10-23T22:04:25.513Z,100451.73
2022-10-23T22:06:56.618Z,100452.27
2022-10-23T22:09:27.650Z,100449.02
2022-10-23T22:12:00.287Z,100451.08
2022-10-23T22:14:36.561Z,100456.79
2022-10-23T22:17:09.412Z,100457.83
2022-10-23T22:19:41.901Z,100458.36
2022-10-23T22:22:13.096Z,100461.98
2022-10-23T22:24:44.172Z,100463.02
2022-10-23T22:27:17.009Z,100461.83
2022-10-23T22:29:48.301Z,100462.36
2022-10-23T22:32:19.135Z,100463.27
2022-10-23T22:34:53.075Z,100463.11
2022-10-23T22:37:24.448Z,100459.70
2022-10-23T22:39:56.904Z,100450.82
2022-10-23T22:42:27.823Z,100445.54
2022-10-23T22:44:58.741Z,100444.89
2022-10-23T22:47:31.799Z,100442.15
2022-10-23T22:50:02.643Z,100438.89
2022-10-23T22:52:34.238Z,100431.89
2022-10-23T22:55:06.252Z,100432.59
2022-10-23T22:57:37.913Z,100438.96
2022-10-23T23:00:11.512Z,100433.70
2022-10-23T23:02:42.434Z,100433.90
2022-10-23T23:05:14.718Z,100435.14
2022-10-23T23:07:45.850Z,100433.80
2022-10-23T23:10:16.893Z,100431.76
2022-10-23T23:12:47.728Z,100426.30
2022-10-23T23:15:20.713Z,100420.83
2022-10-23T23:17:51.921Z,100420.16
2022-10-23T23:20:23.430Z,100422.39
2022-10-23T23:22:55.558Z,100425.45
2022-10-23T23:25:26.441Z,100421.21
2022-10-23T23:27:57.542Z,100417.45
2022-10-23T23:30:28.667Z,100417.98
2022-10-23T23:32:59.681Z,100423.79
2022-10-23T23:35:30.578Z,100421.90
2022-10-23T23:38:01.583Z,100418.98
2022-10-23T23:40:32.486Z,100412.98
2022-10-23T23:43:03.716Z,100413.13
2022-10-23T23:45:35.054Z,100417.38
2022-10-23T23:48:06.098Z,100419.91
2022-10-23T23:50:37.037Z,100414.58
2022-10-23T23:53:07.916Z,100413.66
2022-10-23T23:55:39.199Z,100416.89
2022-10-23T23:58:10.504Z,100419.44
